Profiler II — CZ2496 — position and weather

sailwx.info

Track history (hours):
 
Tides and Currents Weather Stations Pressure Air Temp Water Temp Dewpoint Dewpoint Depression Visibility Wind Speed Wind Dir Waves Ship Positions

Profiler II

Last reported at 2016-Nov-17 22:13 UTC. Time now 2016-Dec-05 02:31 UTC.
Position N 49°12' W 122°55'.
Warning: this ship's position is 17 days out of date.

Type: Other ship. MMSI: 316002054.

Date/timePositionNaut miles runAvg speedWind from/ knotsBaromVisibWave heightAir tempDewpointWater temp
2016-Nov-17 22:13N 49°12' W 122°55'5 7.4
2016-Nov-17 21:33N 49°09' W 123°02'8 3.8
2016-Nov-17 19:33N 49°08' W 123°13'0 0.0
2016-Nov-17 18:32N 49°08' W 123°13'1 0.0
2016-Nov-16 22:33N 49°08' W 123°12'0 0.2
2016-Nov-16 20:33N 49°08' W 123°13'0 0.3
2016-Nov-16 19:33N 49°08' W 123°13'0 0.1
2016-Nov-16 18:33N 49°07' W 123°12'0 0.0
2016-Nov-16 17:33N 49°08' W 123°13'3 0.1
2016-Nov-15 21:29N 49°07' W 123°17'0 0.1
2016-Nov-15 19:33N 49°07' W 123°17'0 0.5
2016-Nov-15 18:33N 49°07' W 123°17'1 0.0
2016-Nov-14 19:29N 49°06' W 123°18'0 0.1
2016-Nov-14 17:26N 49°06' W 123°18'1214.3
2016-Nov-14 16:33N 49°09' W 122°60'4 3.6
2016-Nov-14 15:33N 49°12' W 122°55'0 0.0
2016-Nov-14 11:33N 49°12' W 122°55'0 0.0
2016-Nov-14 08:33N 49°12' W 122°55'0 0.0
2016-Nov-14 05:33N 49°12' W 122°55'0 0.0
2016-Nov-14 00:33N 49°12' W 122°55'0 0.0
2016-Nov-12 17:33N 49°12' W 122°55'0 0.0
2016-Nov-12 16:33N 49°12' W 122°55'0 0.0
2016-Nov-12 15:33N 49°12' W 122°55'0 0.0
2016-Nov-12 14:33N 49°12' W 122°55'0 0.0
2016-Nov-12 13:33N 49°12' W 122°55'0 0.0
2016-Nov-12 12:33N 49°12' W 122°55'0 0.0
2016-Nov-12 11:33N 49°12' W 122°55'0 0.0
2016-Nov-12 09:33N 49°12' W 122°55'0 0.0
2016-Nov-12 06:33N 49°12' W 122°55'0 0.0
2016-Nov-12 03:33N 49°12' W 122°55'0 0.0
2016-Nov-12 02:33N 49°12' W 122°55'0 0.0
2016-Nov-12 00:33N 49°12' W 122°55'0 0.0
2016-Nov-11 23:33N 49°12' W 122°55'0 0.0
2016-Nov-11 19:33N 49°12' W 122°55'0 0.0
2016-Nov-11 15:33N 49°12' W 122°55'0 0.0
2016-Nov-11 14:33N 49°12' W 122°55'0 0.0
2016-Nov-11 10:33N 49°12' W 122°55'0 0.0
2016-Nov-11 09:33N 49°12' W 122°55'0 0.0
2016-Nov-11 06:33N 49°12' W 122°55'0 0.0
2016-Nov-11 05:33N 49°12' W 122°55'0 0.0
2016-Nov-11 04:33N 49°12' W 122°55'0 0.0
2016-Nov-11 03:33N 49°12' W 122°55'0 0.0
2016-Nov-11 02:33N 49°12' W 122°55'0 0.0
2016-Nov-11 01:33N 49°12' W 122°55'0 0.0
2016-Nov-11 00:33N 49°12' W 122°55'0 0.0
2016-Nov-10 23:33N 49°12' W 122°55'0 0.0
2016-Nov-10 22:33N 49°12' W 122°55'0 0.0
2016-Nov-10 20:33N 49°12' W 122°55'0 0.0
2016-Nov-10 18:33N 49°12' W 122°55'0 0.0
2016-Nov-10 16:33N 49°12' W 122°55'0 0.0
2016-Nov-10 15:33N 49°12' W 122°55'0 0.0
2016-Nov-10 11:33N 49°12' W 122°55'0 0.0
2016-Nov-10 10:33N 49°12' W 122°55'0 0.0
2016-Nov-10 09:33N 49°12' W 122°55'0 0.0
2016-Nov-10 08:33N 49°12' W 122°55'0 0.0
2016-Nov-10 07:33N 49°12' W 122°55'0 0.0
2016-Nov-10 06:33N 49°12' W 122°55'0 0.0
2016-Nov-10 05:33N 49°12' W 122°55'0 0.0
2016-Nov-10 04:33N 49°12' W 122°55'0 0.0
2016-Nov-10 00:33N 49°12' W 122°55'0 0.0
2016-Nov-09 22:33N 49°12' W 122°55'0 0.0
2016-Nov-09 20:37N 49°12' W 122°55'0 0.0
2016-Nov-09 19:52N 49°12' W 122°55'0 0.0
2016-Nov-09 19:05N 49°12' W 122°55'0 0.0
2016-Nov-09 18:33N 49°12' W 122°55'0 0.0
2016-Nov-09 17:33N 49°12' W 122°55'0 0.0
2016-Nov-09 15:33N 49°12' W 122°55'0 0.0
2016-Nov-09 13:33N 49°12' W 122°55'0 0.0
2016-Nov-09 08:33N 49°12' W 122°55'0 0.0
2016-Nov-09 07:33N 49°12' W 122°55'0 0.0
2016-Nov-09 05:33N 49°12' W 122°55'0 0.0
2016-Nov-09 04:33N 49°12' W 122°55'0 0.0
2016-Nov-09 02:33N 49°12' W 122°55'0 0.0
2016-Nov-08 23:33N 49°12' W 122°55'0 0.0
2016-Nov-08 22:33N 49°12' W 122°55'0 0.0
2016-Nov-08 21:33N 49°12' W 122°55'0 0.0
2016-Nov-08 20:33N 49°12' W 122°55'0 0.0
2016-Nov-08 19:33N 49°12' W 122°55'0 0.0
2016-Nov-08 18:33N 49°12' W 122°55'0 0.0
2016-Nov-08 17:33N 49°12' W 122°55'0 0.0
2016-Nov-08 15:33N 49°12' W 122°55'0 0.0
2016-Nov-08 09:33N 49°12' W 122°55'0 0.0
2016-Nov-08 06:33N 49°12' W 122°55'0 0.0
2016-Nov-08 04:33N 49°12' W 122°55'0 0.0
2016-Nov-08 00:33N 49°12' W 122°55'0 0.0
2016-Nov-07 23:33N 49°12' W 122°55'  
Track history (hours):
 
Tides and Currents Weather Stations Pressure Air Temp Water Temp Dewpoint Dewpoint Depression Visibility Wind Speed Wind Dir Waves Ship Positions

Profiler II

Last reported at 2016-Nov-17 22:13 UTC. Time now 2016-Dec-05 02:31 UTC.
Position N 49°12' W 122°55'.
Warning: this ship's position is 17 days out of date.

Type: Other ship. MMSI: 316002054.

Date/timePositionNaut miles runAvg speedWind from/ knotsBaromVisibWave heightAir tempDewpointWater temp
2016-Nov-17 22:13N 49°12' W 122°55'5 7.4
2016-Nov-17 21:33N 49°09' W 123°02'8 3.8
2016-Nov-17 19:33N 49°08' W 123°13'0 0.0
2016-Nov-17 18:32N 49°08' W 123°13'1 0.0
2016-Nov-16 22:33N 49°08' W 123°12'0 0.2
2016-Nov-16 20:33N 49°08' W 123°13'0 0.3
2016-Nov-16 19:33N 49°08' W 123°13'0 0.1
2016-Nov-16 18:33N 49°07' W 123°12'0 0.0
2016-Nov-16 17:33N 49°08' W 123°13'3 0.1
2016-Nov-15 21:29N 49°07' W 123°17'0 0.1
2016-Nov-15 19:33N 49°07' W 123°17'0 0.5
2016-Nov-15 18:33N 49°07' W 123°17'1 0.0
2016-Nov-14 19:29N 49°06' W 123°18'0 0.1
2016-Nov-14 17:26N 49°06' W 123°18'1214.3
2016-Nov-14 16:33N 49°09' W 122°60'4 3.6
2016-Nov-14 15:33N 49°12' W 122°55'0 0.0
2016-Nov-14 11:33N 49°12' W 122°55'0 0.0
2016-Nov-14 08:33N 49°12' W 122°55'0 0.0
2016-Nov-14 05:33N 49°12' W 122°55'0 0.0
2016-Nov-14 00:33N 49°12' W 122°55'0 0.0
2016-Nov-12 17:33N 49°12' W 122°55'0 0.0
2016-Nov-12 16:33N 49°12' W 122°55'0 0.0
2016-Nov-12 15:33N 49°12' W 122°55'0 0.0
2016-Nov-12 14:33N 49°12' W 122°55'0 0.0
2016-Nov-12 13:33N 49°12' W 122°55'0 0.0
2016-Nov-12 12:33N 49°12' W 122°55'0 0.0
2016-Nov-12 11:33N 49°12' W 122°55'0 0.0
2016-Nov-12 09:33N 49°12' W 122°55'0 0.0
2016-Nov-12 06:33N 49°12' W 122°55'0 0.0
2016-Nov-12 03:33N 49°12' W 122°55'0 0.0
2016-Nov-12 02:33N 49°12' W 122°55'0 0.0
2016-Nov-12 00:33N 49°12' W 122°55'0 0.0
2016-Nov-11 23:33N 49°12' W 122°55'0 0.0
2016-Nov-11 19:33N 49°12' W 122°55'0 0.0
2016-Nov-11 15:33N 49°12' W 122°55'0 0.0
2016-Nov-11 14:33N 49°12' W 122°55'0 0.0
2016-Nov-11 10:33N 49°12' W 122°55'0 0.0
2016-Nov-11 09:33N 49°12' W 122°55'0 0.0
2016-Nov-11 06:33N 49°12' W 122°55'0 0.0
2016-Nov-11 05:33N 49°12' W 122°55'0 0.0
2016-Nov-11 04:33N 49°12' W 122°55'0 0.0
2016-Nov-11 03:33N 49°12' W 122°55'0 0.0
2016-Nov-11 02:33N 49°12' W 122°55'0 0.0
2016-Nov-11 01:33N 49°12' W 122°55'0 0.0
2016-Nov-11 00:33N 49°12' W 122°55'0 0.0
2016-Nov-10 23:33N 49°12' W 122°55'0 0.0
2016-Nov-10 22:33N 49°12' W 122°55'0 0.0
2016-Nov-10 20:33N 49°12' W 122°55'0 0.0
2016-Nov-10 18:33N 49°12' W 122°55'0 0.0
2016-Nov-10 16:33N 49°12' W 122°55'0 0.0
2016-Nov-10 15:33N 49°12' W 122°55'0 0.0
2016-Nov-10 11:33N 49°12' W 122°55'0 0.0
2016-Nov-10 10:33N 49°12' W 122°55'0 0.0
2016-Nov-10 09:33N 49°12' W 122°55'0 0.0
2016-Nov-10 08:33N 49°12' W 122°55'0 0.0
2016-Nov-10 07:33N 49°12' W 122°55'0 0.0
2016-Nov-10 06:33N 49°12' W 122°55'0 0.0
2016-Nov-10 05:33N 49°12' W 122°55'0 0.0
2016-Nov-10 04:33N 49°12' W 122°55'0 0.0
2016-Nov-10 00:33N 49°12' W 122°55'0 0.0
2016-Nov-09 22:33N 49°12' W 122°55'0 0.0
2016-Nov-09 20:37N 49°12' W 122°55'0 0.0
2016-Nov-09 19:52N 49°12' W 122°55'0 0.0
2016-Nov-09 19:05N 49°12' W 122°55'0 0.0
2016-Nov-09 18:33N 49°12' W 122°55'0 0.0
2016-Nov-09 17:33N 49°12' W 122°55'0 0.0
2016-Nov-09 15:33N 49°12' W 122°55'0 0.0
2016-Nov-09 13:33N 49°12' W 122°55'0 0.0
2016-Nov-09 08:33N 49°12' W 122°55'0 0.0
2016-Nov-09 07:33N 49°12' W 122°55'0 0.0
2016-Nov-09 05:33N 49°12' W 122°55'0 0.0
2016-Nov-09 04:33N 49°12' W 122°55'0 0.0
2016-Nov-09 02:33N 49°12' W 122°55'0 0.0
2016-Nov-08 23:33N 49°12' W 122°55'0 0.0
2016-Nov-08 22:33N 49°12' W 122°55'0 0.0
2016-Nov-08 21:33N 49°12' W 122°55'0 0.0
2016-Nov-08 20:33N 49°12' W 122°55'0 0.0
2016-Nov-08 19:33N 49°12' W 122°55'0 0.0
2016-Nov-08 18:33N 49°12' W 122°55'0 0.0
2016-Nov-08 17:33N 49°12' W 122°55'0 0.0
2016-Nov-08 15:33N 49°12' W 122°55'0 0.0
2016-Nov-08 09:33N 49°12' W 122°55'0 0.0
2016-Nov-08 06:33N 49°12' W 122°55'0 0.0
2016-Nov-08 04:33N 49°12' W 122°55'0 0.0
2016-Nov-08 00:33N 49°12' W 122°55'0 0.0
2016-Nov-07 23:33N 49°12' W 122°55'  

Dump ship's entire track history